Latest Weather Observations for Middle Point

IDD60901

Issued at 7:31 pm CST Thursday 30 July 2015 (issued every 10 minutes, with the page automatically refreshed every 10 minutes)

About weather observations | Map of Darwin area stations | Latest observations for Darwin area | Other Formats
Station Details ID: 014041 Name: MIDDLE POINT Lat: -12.61 Lon: 131.30 Height: 14.1 m
Data from the previous 72 hours. | See also: Recent months at Middle Point
Date/Time
CST
Tmp

°C
App
Tmp
°C
Dew
Point
°C
Rel
Hum
%
Delta-T

°C
Wind Press
QNH
hPa
Press
MSL
hPa
Rain
since
9 am
mm
Dir
 
Spd
km/h
Gust
km/h
Spd
kts
Gust
kts
30/07:30pm 24.6 25.5 16.6 61 4.9 N 7 7 4 4 1013.8 1013.7 0.0
30/07:00pm 25.4 26.3 16.5 58 5.5 N 7 11 4 6 1013.3 1013.2 0.0
30/06:30pm 27.3 27.8 16.6 52 6.6 N 9 11 5 6 1013.0 1012.9 0.0
30/06:00pm 29.6 29.3 16.4 45 8.2 N 13 17 7 9 1012.6 1012.5 0.0
30/05:30pm 30.7 29.2 16.3 42 9.0 N 19 24 10 13 1012.4 1012.3 0.0
30/05:00pm 32.3 31.0 14.9 35 10.7 NNE 15 24 8 13 1012.3 1012.2 0.0
30/04:30pm 34.1 31.9 10.7 24 13.6 E 13 20 7 11 1012.2 1012.1 0.0
30/04:00pm 33.8 31.5 10.4 24 13.5 ESE 13 22 7 12 1012.4 1012.3 0.0
30/03:30pm 33.8 32.0 11.0 25 13.3 ESE 11 20 6 11 1012.5 1012.4 0.0
30/03:00pm 34.3 32.5 12.0 25 13.3 E 13 30 7 16 1012.9 1012.8 0.0
30/02:30pm 33.4 31.9 11.9 27 12.7 ESE 11 22 6 12 1013.4 1013.3 0.0
30/02:00pm 34.0 31.0 11.8 26 13.1 E 19 30 10 16 1013.9 1013.8 0.0
30/01:30pm 33.5 31.2 13.0 29 12.3 ENE 17 26 9 14 1014.3 1014.2 0.0
30/01:00pm 32.5 29.7 12.7 30 11.8 E 19 30 10 16 1015.0 1014.9 0.0
30/12:30pm 33.1 29.5 13.2 30 12.0 E 24 35 13 19 1015.4 1015.3 0.0
30/12:00pm 31.6 27.7 13.4 33 10.9 E 26 37 14 20 1016.1 1016.0 0.0
30/11:30am 31.1 27.2 13.4 34 10.6 E 26 35 14 19 1016.5 1016.4 0.0
30/11:00am 31.1 27.2 13.4 34 10.6 E 26 37 14 20 1016.8 1016.7 0.0
30/10:30am 29.9 26.6 14.0 37 9.6 ESE 24 39 13 21 1017.0 1016.9 0.0
30/10:00am 28.8 25.1 13.9 40 8.9 ESE 26 35 14 19 1017.2 1017.1 0.0
30/09:30am 27.0 25.2 14.4 46 7.5 ESE 17 22 9 12 1017.1 1017.0 0.0
30/09:00am 24.3 24.1 14.7 55 5.7 SE 9 13 5 7 1017.1 1017.0 0.0
30/08:30am 22.2 22.1 13.8 59 4.9 SE 7 9 4 5 1016.9 1016.8 0.0
30/08:00am 17.6 18.4 14.9 84 1.6 SSE 4 6 2 3 1016.7 1016.6 0.0
30/07:30am 14.0 13.8 11.7 86 1.2 SSE 4 6 2 3 1016.6 1016.5 0.0
30/07:00am 13.7 13.4 11.4 86 1.2 ESE 4 6 2 3 1016.5 1016.4 0.0
30/06:30am 13.9 14.5 11.9 88 1.1 CALM 0 0 0 0 1016.2 1016.1 0.0
30/06:00am 13.6 14.0 11.3 86 1.2 CALM 0 0 0 0 1015.9 1015.8 0.0
30/05:30am 13.2 13.6 11.1 87 1.1 CALM 0 0 0 0 1015.7 1015.6 0.0
30/05:00am 13.6 14.0 11.3 86 1.2 CALM 0 0 0 0 1015.6 1015.5 0.0
30/04:30am 13.9 14.3 11.2 84 1.4 CALM 0 0 0 0 1015.6 1015.5 0.0
30/04:00am 15.2 15.8 11.8 80 1.8 CALM 0 0 0 0 1015.9 1015.8 0.0
30/03:30am 15.6 15.5 12.2 80 1.9 N 4 6 2 3 1016.0 1015.9 0.0
30/03:00am 15.2 14.6 11.6 79 1.9 N 6 6 3 3 1016.3 1016.2 0.0
30/02:30am 19.1 18.6 11.9 63 4.0 E 6 6 3 3 1016.2 1016.1 0.0
30/02:00am 19.1 18.6 12.8 67 3.5 ESE 7 9 4 5 1016.5 1016.4 0.0
30/01:30am 16.3 16.4 12.7 79 2.0 E 4 9 2 5 1016.6 1016.5 0.0
30/01:00am 16.0 16.1 12.6 80 1.9 ESE 4 4 2 2 1016.7 1016.6 0.0
30/12:30am 16.5 17.0 12.7 78 2.1 SE 2 2 1 1 1016.7 1016.6 0.0
30/12:00am 17.2 18.2 13.3 78 2.2 CALM 0 0 0 0 1016.6 1016.5 0.0
 
Date/Time
CST
Tmp

°C
App
Tmp
°C
Dew
Point
°C
Rel
Hum
%
Delta-T

°C
Wind Press
QNH
hPa
Press
MSL
hPa
Rain
since
9 am
mm
Dir
 
Spd
km/h
Gust
km/h
Spd
kts
Gust
kts
29/11:30pm 17.0 18.0 13.1 78 2.2 CALM 0 0 0 0 1016.6 1016.5 0.0
29/11:00pm 16.7 17.7 13.2 80 2.0 CALM 0 0 0 0 1016.5 1016.4 0.0
29/10:30pm 17.7 18.5 12.4 71 2.9 CALM 0 0 0 0 1016.6 1016.5 0.0
29/10:00pm 18.2 19.2 13.1 72 2.9 CALM 0 0 0 0 1016.5 1016.4 0.0
29/09:30pm 18.9 19.9 13.1 69 3.3 CALM 0 0 0 0 1016.4 1016.3 0.0
29/09:00pm 19.2 20.1 12.9 67 3.5 CALM 0 0 0 0 1016.0 1015.9 0.0
29/08:30pm 19.8 20.2 12.6 63 4.0 SSE 2 6 1 3 1015.9 1015.8 0.0
29/08:00pm 21.2 21.1 12.1 56 5.1 ESE 4 6 2 3 1015.4 1015.3 0.0
29/07:30pm 23.9 23.7 11.9 47 6.8 E 4 7 2 4 1015.0 1014.9 0.0
29/07:00pm 26.9 26.2 10.2 35 9.3 E 4 6 2 3 1014.5 1014.4 0.0
29/06:30pm 28.2 26.8 9.5 31 10.4 ESE 7 9 4 5 1014.1 1014.0 0.0
29/06:00pm 31.1 28.9 9.3 26 12.2 ESE 11 17 6 9 1013.9 1013.8 0.0
29/05:30pm 32.4 29.2 8.6 23 13.3 E 15 20 8 11 1013.5 1013.4 0.0
29/05:00pm 32.8 30.1 8.9 23 13.5 ESE 13 22 7 12 1013.4 1013.3 0.0
29/04:30pm 33.1 30.2 9.8 24 13.3 SE 15 22 8 12 1013.2 1013.1 0.0
29/04:00pm 33.4 29.5 9.4 23 13.7 ESE 20 28 11 15 1013.4 1013.3 0.0
29/03:30pm 32.8 29.1 9.6 24 13.2 E 19 33 10 18 1013.5 1013.4 0.0
29/03:00pm 33.0 29.9 10.4 25 13.0 ESE 17 32 9 17 1013.9 1013.8 0.0
29/02:30pm 33.1 29.5 10.4 25 13.1 ESE 20 30 11 16 1014.2 1014.1 0.0
29/02:00pm 32.3 28.9 10.4 26 12.6 ESE 19 28 10 15 1014.5 1014.4 0.0
29/01:30pm 31.9 28.5 10.6 27 12.3 ESE 19 32 10 17 1015.2 1015.1 0.0
29/01:00pm 31.9 28.5 11.1 28 12.1 ESE 20 35 11 19 1015.7 1015.6 0.0
29/12:30pm 31.2 28.0 11.1 29 11.6 ESE 19 28 10 15 1016.2 1016.1 0.0
29/12:00pm 30.6 26.8 11.1 30 11.2 ESE 22 33 12 18 1016.8 1016.7 0.0
29/11:30am 29.7 26.0 10.3 30 11.0 ESE 20 33 11 18 1017.4 1017.3 0.0
29/11:00am 28.4 23.5 10.1 32 10.3 ESE 26 35 14 19 1017.9 1017.8 0.0
29/10:30am 28.1 23.9 9.9 32 10.2 ESE 22 35 12 19 1018.0 1017.9 0.0
29/10:00am 26.9 22.8 10.2 35 9.3 SE 22 32 12 17 1018.3 1018.2 0.0
29/09:30am 25.5 23.2 11.7 42 7.8 SSE 15 20 8 11 1018.5 1018.4 0.0
29/09:00am 23.6 20.7 11.0 45 7.0 SSE 17 24 9 13 1018.3 1018.2 0.0
29/08:30am 21.6 19.5 11.3 52 5.7 S 13 19 7 10 1018.0 1017.9 0.0
29/08:00am 19.1 18.1 10.9 59 4.5 S 7 11 4 6 1017.8 1017.7 0.0
29/07:30am 16.7 15.0 11.2 70 3.0 S 11 13 6 7 1017.5 1017.4 0.0
29/07:00am 15.5 14.0 10.5 72 2.6 S 9 11 5 6 1017.2 1017.1 0.0
29/06:30am 13.6 12.5 9.8 78 2.0 S 6 6 3 3 1017.0 1016.9 0.0
29/06:00am 13.9 12.8 10.1 78 2.0 S 6 6 3 3 1016.8 1016.7 0.0
29/05:30am 14.3 13.6 10.1 76 2.2 SSE 4 4 2 2 1016.7 1016.6 0.0
29/05:00am 15.6 14.8 9.5 67 3.2 SSE 4 6 2 3 1016.5 1016.4 0.0
29/04:30am 17.2 15.7 10.6 65 3.5 S 9 11 5 6 1016.2 1016.1 0.0
29/04:00am 15.7 14.6 9.8 68 3.1 S 6 6 3 3 1016.1 1016.0 0.0
29/03:30am 17.8 16.8 10.2 61 4.0 S 6 6 3 3 1016.2 1016.1 0.0
29/03:00am 18.3 17.1 10.4 60 4.2 S 7 9 4 5 1016.3 1016.2 0.0
29/02:30am 16.0 15.2 11.2 73 2.6 S 6 7 3 4 1016.6 1016.5 0.0
29/02:00am 15.4 14.6 11.2 76 2.2 S 6 6 3 3 1016.7 1016.6 0.0
29/01:30am 15.1 14.6 10.7 75 2.3 SSE 4 4 2 2 1016.8 1016.7 0.0
29/01:00am 15.9 15.1 10.9 72 2.7 SSE 6 9 3 5 1017.0 1016.9 0.0
29/12:30am 16.1 15.1 11.1 72 2.7 SE 7 9 4 5 1017.0 1016.9 0.0
29/12:00am 16.4 15.5 11.3 72 2.7 SSE 7 9 4 5 1017.1 1017.0 0.0
 
Date/Time
CST
Tmp

°C
App
Tmp
°C
Dew
Point
°C
Rel
Hum
%
Delta-T

°C
Wind Press
QNH
hPa
Press
MSL
hPa
Rain
since
9 am
mm
Dir
 
Spd
km/h
Gust
km/h
Spd
kts
Gust
kts
28/11:30pm 16.7 15.9 11.0 69 3.1 SSE 6 6 3 3 1017.1 1017.0 0.0
28/11:00pm 17.0 16.1 10.8 67 3.3 SSE 6 6 3 3 1017.2 1017.1 0.0
28/10:30pm 17.0 15.9 10.8 67 3.3 S 7 7 4 4 1017.3 1017.2 0.0
28/10:00pm 17.7 16.9 11.0 65 3.6 SSE 6 6 3 3 1017.2 1017.1 0.0
28/09:30pm 17.7 17.2 10.6 63 3.8 S 4 6 2 3 1017.1 1017.0 0.0
28/09:00pm 18.6 18.8 10.4 59 4.4 CALM 0 0 0 0 1017.0 1016.9 0.0
28/08:30pm 19.4 19.6 10.4 56 4.8 CALM 0 0 0 0 1016.8 1016.7 0.0
28/08:00pm 20.0 19.4 9.0 49 5.8 SSW 2 4 1 2 1016.4 1016.3 0.0
28/07:30pm 23.8 22.2 7.8 36 8.4 ESE 6 6 3 3 1015.9 1015.8 0.0
28/07:00pm 25.2 22.9 7.3 32 9.4 ESE 9 13 5 7 1015.5 1015.4 0.0
28/06:30pm 27.4 25.1 7.3 28 10.7 ESE 9 13 5 7 1015.3 1015.2 0.0
28/06:00pm 29.9 26.8 7.2 24 12.2 ESE 13 20 7 11 1014.9 1014.8 0.0
28/05:30pm 31.1 27.2 6.9 22 13.1 ESE 17 24 9 13 1014.7 1014.6 0.0
28/05:00pm 31.8 27.3 6.1 20 13.8 E 19 28 10 15 1014.4 1014.3 0.0
28/04:30pm 32.3 28.3 6.5 20 13.9 ESE 17 24 9 13 1014.3 1014.2 0.0
28/04:00pm 32.6 28.2 6.7 20 14.1 ESE 19 30 10 16 1014.3 1014.2 0.0
28/03:30pm 32.2 27.6 6.4 20 13.9 ESE 20 30 11 16 1014.5 1014.4 0.0
28/03:00pm 32.9 27.8 6.2 19 14.4 SE 22 32 12 17 1014.8 1014.7 0.0
28/02:30pm 31.9 26.8 6.2 20 13.8 ESE 22 39 12 21 1015.2 1015.1 0.0
28/02:00pm 31.7 26.6 6.0 20 13.7 SE 22 44 12 24 1015.7 1015.6 0.0
28/01:30pm 31.8 26.6 5.3 19 14.0 ESE 22 35 12 19 1016.2 1016.1 0.0
28/01:00pm 31.5 26.5 6.5 21 13.5 ESE 22 30 12 16 1016.7 1016.6 0.0
28/12:30pm 30.4 25.1 4.9 20 13.3 SE 22 35 12 19 1017.2 1017.1 0.0
28/12:00pm 30.3 24.7 5.6 21 13.0 SSE 24 35 13 19 1017.7 1017.6 0.0
28/11:30am 29.2 23.1 4.6 21 12.6 SE 26 33 14 18 1017.9 1017.8 0.0
28/11:00am 29.0 23.3 5.1 22 12.4 SE 24 35 13 19 1018.3 1018.2 0.0
28/10:30am 27.5 20.6 4.5 23 11.7 SE 30 39 16 21 1018.6 1018.5 0.0
28/10:00am 26.7 20.7 5.1 25 11.0 SE 26 39 14 21 1018.6 1018.5 0.0
28/09:30am 25.9 20.2 4.9 26 10.6 SE 24 35 13 19 1018.7 1018.6 0.0
28/09:00am 25.0 20.8 5.7 29 9.8 SE 17 28 9 15 1018.6 1018.5 0.0
28/08:30am 23.5 20.3 6.7 34 8.6 SE 13 22 7 12 1018.3 1018.2 0.0
28/08:00am 20.3 19.3 11.0 55 5.1 S 7 9 4 5 1018.2 1018.1 0.0
28/07:30am 17.7 16.8 11.3 66 3.5 S 7 9 4 5 1018.1 1018.0 0.0
28/07:00am 17.4 15.9 10.5 64 3.7 S 9 9 5 5 1017.9 1017.8 0.0
28/06:30am 18.2 16.8 10.8 62 4.0 S 9 9 5 5 1017.6 1017.5 0.0
28/06:00am 19.2 18.1 10.5 57 4.7 SSE 7 9 4 5 1017.2 1017.1 0.0
28/05:30am 19.9 18.5 10.9 56 4.9 SE 9 11 5 6 1017.0 1016.9 0.0
28/05:00am 19.7 18.8 11.5 59 4.5 SSE 7 9 4 5 1017.0 1016.9 0.0
28/04:30am 19.9 19.0 11.4 58 4.7 SE 7 9 4 5 1017.0 1016.9 0.0
28/04:00am 20.4 19.3 12.1 59 4.6 SE 9 13 5 7 1016.8 1016.7 0.0
28/03:30am 19.9 19.5 12.9 64 4.0 SSE 7 9 4 5 1016.7 1016.6 0.0
28/03:00am 18.6 18.6 13.5 72 2.9 SSE 6 7 3 4 1016.6 1016.5 0.0
28/02:30am 20.1 20.2 13.8 67 3.6 ESE 6 7 3 4 1016.7 1016.6 0.0
28/02:00am 20.7 20.4 15.5 72 3.1 SSE 11 19 6 10 1016.8 1016.7 0.0
28/01:30am 18.1 19.8 16.1 88 1.2 SSE 2 2 1 1 1016.7 1016.6 0.0
28/01:00am 17.5 18.6 15.5 88 1.2 S 4 4 2 2 1016.7 1016.6 0.0
28/12:30am 18.1 19.5 15.5 85 1.5 SE 2 4 1 2 1016.6 1016.5 0.0
28/12:00am 18.2 20.2 16.0 87 1.3 CALM 0 0 0 0 1016.7 1016.6 0.0
 
Date/Time
CST
Tmp

°C
App
Tmp
°C
Dew
Point
°C
Rel
Hum
%
Delta-T

°C
Wind Press
QNH
hPa
Press
MSL
hPa
Rain
since
9 am
mm
Dir
 
Spd
km/h
Gust
km/h
Spd
kts
Gust
kts
27/11:30pm 18.7 20.7 15.9 84 1.7 CALM 0 0 0 0 1016.7 1016.6 0.0
27/11:00pm 19.1 21.2 16.3 84 1.7 CALM 0 0 0 0 1016.7 1016.6 0.0
27/10:30pm 19.3 20.8 15.8 80 2.1 S 2 4 1 2 1016.7 1016.6 0.0
27/10:00pm 20.2 22.1 16.8 81 2.1 NNE 2 4 1 2 1016.4 1016.3 0.0
27/09:30pm 20.7 23.0 16.7 78 2.4 CALM 0 0 0 0 1016.2 1016.1 0.0
27/09:00pm 22.2 24.4 16.5 70 3.5 CALM 0 0 0 0 1016.0 1015.9 0.0
27/08:30pm 24.0 25.9 16.8 64 4.4 NNE 2 4 1 2 1015.8 1015.7 0.0
27/08:00pm 25.1 26.5 17.3 62 4.9 NNE 6 6 3 3 1015.5 1015.4 0.0

Latest Capital City Observations: Canberra | Sydney | Melbourne | Brisbane | Adelaide | Perth | Hobart | Darwin

Other Formats:

Comma delimited format used in spreadsheet applications
http://www.bom.gov.au/fwo/IDD60901/IDD60901.95121.axf

JavaScript Object Notation format (JSON) in row-major order
http://www.bom.gov.au/fwo/IDD60901/IDD60901.95121.json